Terminal Aerodrome Forecast
Issued by NWS

Home | Current Version | Previous Version | Graphics & Text | Print | Product List | Glossary On
Versions: 1 2 3 4 5 6 7 8 9 10 11 12 13 14 15 16 17 18 19 20 21 22 23 24 25 26
000
FTUS43 KBIS 221616 AAB
TAFJMS
TAF AMD
KJMS 221616Z 2216/2312 36012KT 2SM -SN BR OVC004
      TEMPO 2216/2219 1SM -SN BR OVC003
     FM222200 01016G24KT P6SM VCSH OVC010
     FM230100 36012KT P6SM BKN015=

USA.gov is the U.S. government's official web portal to all federal, state and local government web resources and services.